Escatawpa, Mississippi
Current Conditions -  °F | °C
As of 1:53 AM on Sunday 23 Nov 2014 (Local Time) from KPQL Reporting Station
Overcast Overcast  
Wind Chill: 63°   Ceiling: 600
Heat Index: 63°   Visibility: 10mi
Dew Point: 61°   Wind: 5mph
Humidity: 93%   Direction: 50°NE
Pressure: 29.86"   Gusts: NA
Location:  30.44°N, 88.55°W
Report Text: KPQL 230753Z AUTO 05004KT 10SM OVC006 17/16 A2986 RMK AO2 SLP114 T01720161 TSNO
Loading
Personal Weather Stations






























Interactive Weather Map New forecast layout! Learn more

10-Day Weather Forecast

Advertisements
Track Severe Weather on mobile